Time;durP1;ratioP1;P1;durP2;ratioP2;P2;SDS_P1;SDS_P2;PMS_P1;PMS_P2;Temp;Humidity;BMP_temperature;BMP_pressure;BME280_temperature;BME280_humidity;BME280_pressure;Samples;Min_cycle;Max_cycle;Signal;HPM_P1;HPM_P2
2022/10/27 00:01:15;;;;;;;;;;;333.40;2329.60;;;;;;5033183;28;19917;-62
2022/10/27 00:03:41;;;;;;;;;;;333.30;2329.60;;;;;;5033087;28;20314;-58
2022/10/27 00:06:06;;;;;;;;;;;333.40;2329.60;;;;;;5033185;28;20374;-58
2022/10/27 00:08:32;;;;;;;;;;;333.40;2329.60;;;;;;5033091;28;19965;-58
2022/10/27 00:10:58;;;;;;;;;;;333.30;2329.60;;;;;;5033094;28;19909;-58
2022/10/27 00:13:24;;;;;;;;;;;333.30;2329.60;;;;;;5032861;28;19909;-58
2022/10/27 00:16:00;;;;;;;;;;;333.30;2329.60;;;;;;5033176;28;20279;-59
2022/10/27 00:18:26;;;;;;;;;;;333.20;2329.60;;;;;;5033094;28;19917;-63
2022/10/27 00:20:58;;;;;;;;;;;333.00;2329.60;;;;;;5032915;28;19955;-57
2022/10/27 00:23:24;;;;;;;;;;;308.10;2304.00;;;;;;5032870;28;19988;-58
2022/10/27 00:25:53;;;;;;;;;;;308.10;2304.00;;;;;;5032951;28;20451;-64
2022/10/27 00:28:19;;;;;;;;;;;308.10;2304.00;;;;;;5032715;28;20363;-63
2022/10/27 00:30:44;;;;;;;;;;;308.10;2304.00;;;;;;5032804;28;19923;-58
2022/10/27 00:33:10;;;;;;;;;;;332.80;2329.60;;;;;;5033044;28;20367;-66
2022/10/27 00:35:36;;;;;;;;;;;333.20;2329.60;;;;;;5032660;28;19909;-60
2022/10/27 00:38:01;;;;;;;;;;;332.90;2329.60;;;;;;5032626;28;19931;-59
2022/10/27 00:40:27;;;;;;;;;;;332.90;2329.60;;;;;;5032690;28;19914;-58
2022/10/27 00:42:52;;;;;;;;;;;332.90;2329.60;;;;;;5032398;28;19909;-58
2022/10/27 00:45:18;;;;;;;;;;;332.90;2329.60;;;;;;5032544;28;20302;-62
2022/10/27 00:47:44;;;;;;;;;;;332.90;2329.60;;;;;;5032258;28;20318;-63
2022/10/27 00:50:21;;;;;;;;;;;308.10;2304.00;;;;;;5032544;28;19996;-59
2022/10/27 00:52:49;;;;;;;;;;;332.80;2329.60;;;;;;5032572;28;19936;-63
2022/10/27 00:55:17;;;;;;;;;;;332.80;2329.60;;;;;;5032366;28;19909;-59
2022/10/27 00:57:45;;;;;;;;;;;332.80;2329.60;;;;;;5032039;28;19914;-62
2022/10/27 01:00:10;;;;;;;;;;;332.80;2329.60;;;;;;5032300;28;19944;-59
2022/10/27 01:02:36;;;;;;;;;;;308.10;2304.00;;;;;;5031148;28;20011;-59
2022/10/27 01:05:13;;;;;;;;;;;308.10;2304.00;;;;;;5031665;28;19929;-58
2022/10/27 01:07:39;;;;;;;;;;;308.10;2304.00;;;;;;5032008;28;19931;-62
2022/10/27 01:10:05;;;;;;;;;;;308.10;2304.00;;;;;;5032096;28;19909;-58
2022/10/27 01:12:31;;;;;;;;;;;308.10;2304.00;;;;;;5032064;28;20420;-58
2022/10/27 01:14:56;;;;;;;;;;;308.10;2304.00;;;;;;5032279;28;20387;-58
2022/10/27 01:17:31;;;;;;;;;;;308.10;2304.00;;;;;;5031814;28;19915;-59
2022/10/27 01:20:25;;;;;;;;;;;308.00;2304.00;;;;;;5031720;28;19917;-58
2022/10/27 01:23:03;;;;;;;;;;;308.00;2304.00;;;;;;5029279;28;19909;-59
2022/10/27 01:25:31;;;;;;;;;;;308.10;2304.00;;;;;;5029742;28;20302;-63
2022/10/27 01:28:08;;;;;;;;;;;308.00;2304.00;;;;;;5029587;28;20425;-62
2022/10/27 01:30:56;;;;;;;;;;;308.00;2304.00;;;;;;5029532;28;19909;-58
2022/10/27 01:33:28;;;;;;;;;;;308.00;2304.00;;;;;;5029300;28;19909;-58
2022/10/27 01:35:58;;;;;;;;;;;307.90;2304.00;;;;;;5029206;28;19936;-60
2022/10/27 01:38:26;;;;;;;;;;;307.90;2304.00;;;;;;5029327;28;19921;-58
2022/10/27 01:41:06;;;;;;;;;;;307.90;2304.00;;;;;;5029158;28;19913;-59
2022/10/27 01:43:33;;;;;;;;;;;307.90;2304.00;;;;;;5029433;28;19913;-63
2022/10/27 01:46:00;;;;;;;;;;;307.90;2304.00;;;;;;5029311;28;19991;-61
2022/10/27 01:48:26;;;;;;;;;;;307.90;2304.00;;;;;;5029004;28;20426;-58
2022/10/27 01:50:51;;;;;;;;;;;307.80;2304.00;;;;;;5029036;28;20043;-62
2022/10/27 01:53:17;;;;;;;;;;;307.80;2304.00;;;;;;5029221;28;19913;-58
2022/10/27 01:55:42;;;;;;;;;;;307.80;2304.00;;;;;;5028882;28;20306;-61
2022/10/27 01:58:20;;;;;;;;;;;307.80;2304.00;;;;;;5029117;28;19909;-60
2022/10/27 02:00:49;;;;;;;;;;;307.80;2304.00;;;;;;5031099;28;19915;-58
2022/10/27 02:03:16;;;;;;;;;;;307.70;2304.00;;;;;;5030928;28;19999;-58
2022/10/27 02:06:01;;;;;;;;;;;307.60;2304.00;;;;;;5030663;28;20075;-57
2022/10/27 02:08:30;;;;;;;;;;;307.50;2304.00;;;;;;5030938;28;19929;-58
2022/10/27 02:10:58;;;;;;;;;;;307.50;2304.00;;;;;;5030830;28;20001;-57
2022/10/27 02:13:24;;;;;;;;;;;307.60;2304.00;;;;;;5030688;28;19920;-62
2022/10/27 02:15:52;;;;;;;;;;;307.60;2304.00;;;;;;5030677;28;19909;-58
2022/10/27 02:18:22;;;;;;;;;;;307.70;2304.00;;;;;;5030762;28;19909;-58
2022/10/27 02:20:50;;;;;;;;;;;307.70;2304.00;;;;;;5030730;28;19909;-61
2022/10/27 02:23:16;;;;;;;;;;;307.70;2304.00;;;;;;5030643;28;19913;-59
2022/10/27 02:25:49;;;;;;;;;;;307.80;2304.00;;;;;;5030577;28;19909;-58
2022/10/27 02:28:17;;;;;;;;;;;307.80;2304.00;;;;;;5030252;28;19933;-66
2022/10/27 02:30:43;;;;;;;;;;;308.00;2304.00;;;;;;5030788;28;19944;-58
2022/10/27 02:33:09;;;;;;;;;;;308.00;2304.00;;;;;;5030627;28;20350;-58
2022/10/27 02:35:35;;;;;;;;;;;308.00;2304.00;;;;;;5030226;28;19920;-67
2022/10/27 02:38:00;;;;;;;;;;;307.90;2304.00;;;;;;5030553;28;20421;-58
2022/10/27 02:40:26;;;;;;;;;;;307.90;2304.00;;;;;;5030470;28;20314;-59
2022/10/27 02:42:51;;;;;;;;;;;307.90;2304.00;;;;;;5030199;28;19909;-58
2022/10/27 02:45:18;;;;;;;;;;;307.80;2304.00;;;;;;5030357;28;19910;-58
2022/10/27 02:47:44;;;;;;;;;;;307.80;2304.00;;;;;;5030246;28;19924;-63
2022/10/27 02:50:10;;;;;;;;;;;307.80;2304.00;;;;;;5030387;28;19909;-63
2022/10/27 02:52:35;;;;;;;;;;;307.80;2304.00;;;;;;5030247;28;19976;-64
2022/10/27 02:55:01;;;;;;;;;;;307.80;2304.00;;;;;;5030233;28;19917;-58
2022/10/27 02:57:26;;;;;;;;;;;307.70;2304.00;;;;;;5030276;28;19971;-59
2022/10/27 02:59:52;;;;;;;;;;;307.70;2304.00;;;;;;5030169;28;20003;-64
2022/10/27 03:02:17;;;;;;;;;;;307.70;2304.00;;;;;;5030465;28;19909;-59
2022/10/27 03:04:43;;;;;;;;;;;307.70;2304.00;;;;;;5029566;28;20355;-58
2022/10/27 03:07:08;;;;;;;;;;;307.70;2304.00;;;;;;5029912;28;19921;-58
2022/10/27 03:09:34;;;;;;;;;;;307.70;2304.00;;;;;;5029881;28;19916;-63
2022/10/27 03:11:59;;;;;;;;;;;307.60;2304.00;;;;;;5029845;28;20474;-61
2022/10/27 03:14:25;;;;;;;;;;;307.50;2304.00;;;;;;5029641;28;19965;-58
2022/10/27 03:16:50;;;;;;;;;;;307.50;2304.00;;;;;;5029888;28;20394;-58
2022/10/27 03:19:16;;;;;;;;;;;307.50;2304.00;;;;;;5030026;28;20366;-58
2022/10/27 03:21:42;;;;;;;;;;;307.50;2304.00;;;;;;5029673;28;19909;-57
2022/10/27 03:24:07;;;;;;;;;;;307.50;2304.00;;;;;;5029837;28;19909;-58
2022/10/27 03:26:33;;;;;;;;;;;307.50;2304.00;;;;;;5028969;28;20447;-58
2022/10/27 03:28:58;;;;;;;;;;;307.40;2304.00;;;;;;5029604;28;19937;-63
2022/10/27 03:31:24;;;;;;;;;;;307.40;2304.00;;;;;;5029713;28;19913;-58
2022/10/27 03:33:49;;;;;;;;;;;307.40;2304.00;;;;;;5029635;28;20239;-60
2022/10/27 03:36:15;;;;;;;;;;;307.40;2304.00;;;;;;5029532;28;19928;-59
2022/10/27 03:38:40;;;;;;;;;;;307.40;2304.00;;;;;;5029508;28;19909;-62
2022/10/27 03:41:06;;;;;;;;;;;307.40;2304.00;;;;;;5029670;28;19920;-58
2022/10/27 03:43:31;;;;;;;;;;;307.40;2304.00;;;;;;5029503;28;19916;-58
2022/10/27 03:45:57;;;;;;;;;;;307.40;2304.00;;;;;;5029598;28;19960;-61
2022/10/27 03:48:23;;;;;;;;;;;307.40;2304.00;;;;;;5012204;28;20008;-59
2022/10/27 03:50:49;;;;;;;;;;;307.30;2304.00;;;;;;5009878;28;19910;-58
2022/10/27 03:53:15;;;;;;;;;;;307.30;2304.00;;;;;;5009775;28;19981;-57
2022/10/27 03:55:41;;;;;;;;;;;307.20;2304.00;;;;;;5009707;28;19914;-61
2022/10/27 03:58:09;;;;;;;;;;;307.20;2304.00;;;;;;5009980;28;19913;-59
2022/10/27 04:00:35;;;;;;;;;;;307.20;2304.00;;;;;;5009609;28;19910;-58
2022/10/27 04:03:00;;;;;;;;;;;307.20;2304.00;;;;;;5009594;28;19913;-62
2022/10/27 04:05:26;;;;;;;;;;;307.20;2304.00;;;;;;5009503;28;20307;-64
2022/10/27 04:07:52;;;;;;;;;;;307.30;2304.00;;;;;;5009412;28;20292;-61
2022/10/27 04:10:17;;;;;;;;;;;307.40;2304.00;;;;;;5009783;28;19910;-58
2022/10/27 04:12:53;;;;;;;;;;;307.40;2304.00;;;;;;5009395;28;19910;-59
2022/10/27 04:15:19;;;;;;;;;;;307.40;2304.00;;;;;;5009636;28;19917;-60
2022/10/27 04:17:45;;;;;;;;;;;307.40;2304.00;;;;;;5009302;28;19909;-63
2022/10/27 04:20:10;;;;;;;;;;;307.40;2304.00;;;;;;5009391;28;19917;-59
2022/10/27 04:22:36;;;;;;;;;;;307.40;2304.00;;;;;;5009741;28;19920;-58
2022/10/27 04:25:01;;;;;;;;;;;307.40;2304.00;;;;;;5009387;28;19914;-65
2022/10/27 04:27:27;;;;;;;;;;;307.40;2304.00;;;;;;5009326;28;19917;-57
2022/10/27 04:29:52;;;;;;;;;;;307.30;2304.00;;;;;;5009231;28;20009;-61
2022/10/27 04:32:18;;;;;;;;;;;307.40;2304.00;;;;;;5009823;28;20040;-59
2022/10/27 04:34:43;;;;;;;;;;;307.30;2304.00;;;;;;5009056;28;19913;-61
2022/10/27 04:37:09;;;;;;;;;;;307.30;2304.00;;;;;;5010108;28;19914;-58
2022/10/27 04:39:34;;;;;;;;;;;307.30;2304.00;;;;;;5012873;28;19992;-58
2022/10/27 04:42:00;;;;;;;;;;;307.40;2304.00;;;;;;5012877;28;19909;-58
2022/10/27 04:44:25;;;;;;;;;;;307.60;2304.00;;;;;;5012809;28;19917;-58
2022/10/27 04:46:51;;;;;;;;;;;307.60;2304.00;;;;;;5020534;28;20405;-60
2022/10/27 04:49:17;;;;;;;;;;;307.60;2304.00;;;;;;5021931;28;19953;-58
2022/10/27 04:51:42;;;;;;;;;;;307.60;2304.00;;;;;;5021625;28;19935;-62
2022/10/27 04:54:08;;;;;;;;;;;307.60;2304.00;;;;;;5023123;28;20375;-63
2022/10/27 04:56:33;;;;;;;;;;;307.60;2304.00;;;;;;5021113;28;19916;-61
2022/10/27 04:58:59;;;;;;;;;;;307.30;2304.00;;;;;;5021995;28;19909;-60
2022/10/27 05:01:24;;;;;;;;;;;307.30;2304.00;;;;;;5017734;28;19910;-59
2022/10/27 05:03:50;;;;;;;;;;;307.20;2304.00;;;;;;5013406;28;19952;-58
2022/10/27 05:06:16;;;;;;;;;;;282.50;2278.40;;;;;;5013172;28;19976;-58
2022/10/27 05:08:41;;;;;;;;;;;282.50;2278.40;;;;;;5013123;28;19924;-59
2022/10/27 05:11:07;;;;;;;;;;;307.20;2304.00;;;;;;5021297;28;19914;-58
2022/10/27 05:13:32;;;;;;;;;;;282.50;2278.40;;;;;;5032831;28;19915;-62
2022/10/27 05:15:59;;;;;;;;;;;282.40;2278.40;;;;;;5032975;28;19910;-58
2022/10/27 05:18:25;;;;;;;;;;;282.40;2278.40;;;;;;5032959;28;19916;-58
2022/10/27 05:20:50;;;;;;;;;;;282.40;2278.40;;;;;;5029128;28;19917;-61
2022/10/27 05:23:16;;;;;;;;;;;282.50;2278.40;;;;;;5031872;28;20005;-58
2022/10/27 05:25:41;;;;;;;;;;;307.20;2304.00;;;;;;5031859;28;20000;-58
2022/10/27 05:28:08;;;;;;;;;;;307.20;2304.00;;;;;;5032752;28;19967;-58
2022/10/27 05:30:33;;;;;;;;;;;307.30;2304.00;;;;;;5029282;28;19949;-58
2022/10/27 05:32:59;;;;;;;;;;;307.30;2304.00;;;;;;5031626;28;20382;-59
2022/10/27 05:35:25;;;;;;;;;;;307.50;2304.00;;;;;;5031972;28;19913;-58
2022/10/27 05:37:50;;;;;;;;;;;307.70;2304.00;;;;;;5032492;28;19959;-57
2022/10/27 05:40:16;;;;;;;;;;;307.90;2304.00;;;;;;5030639;28;20369;-66
2022/10/27 05:42:48;;;;;;;;;;;308.10;2304.00;;;;;;5011822;28;19913;-58
2022/10/27 05:45:14;;;;;;;;;;;308.10;2304.00;;;;;;5012187;28;19910;-59
2022/10/27 05:47:39;;;;;;;;;;;332.90;2329.60;;;;;;5012521;28;19924;-59
2022/10/27 05:50:05;;;;;;;;;;;333.10;2329.60;;;;;;5011945;28;19909;-58
2022/10/27 05:52:31;;;;;;;;;;;333.20;2329.60;;;;;;5012389;28;20002;-58
2022/10/27 05:54:56;;;;;;;;;;;333.20;2329.60;;;;;;5012433;28;19952;-63
2022/10/27 05:57:22;;;;;;;;;;;333.30;2329.60;;;;;;5012310;28;19909;-57
2022/10/27 05:59:47;;;;;;;;;;;333.50;2329.60;;;;;;5017077;28;20394;-64
2022/10/27 06:02:13;;;;;;;;;;;333.50;2329.60;;;;;;5021257;28;19910;-65
2022/10/27 06:04:39;;;;;;;;;;;333.40;2329.60;;;;;;5019410;28;19914;-58
2022/10/27 06:07:05;;;;;;;;;;;333.50;2329.60;;;;;;5021237;28;19913;-58
2022/10/27 06:09:31;;;;;;;;;;;333.70;2329.60;;;;;;5029904;28;19936;-63
2022/10/27 06:11:56;;;;;;;;;;;358.40;2329.60;;;;;;5032141;28;19924;-58
2022/10/27 06:14:22;;;;;;;;;;;358.50;2329.60;;;;;;5031652;28;20338;-58
2022/10/27 06:16:47;;;;;;;;;;;358.70;2329.60;;;;;;5031756;28;19909;-58
2022/10/27 06:19:13;;;;;;;;;;;359.00;2329.60;;;;;;5031552;28;19909;-59
2022/10/27 06:21:38;;;;;;;;;;;359.10;2329.60;;;;;;5031279;28;19913;-60
2022/10/27 06:24:04;;;;;;;;;;;359.30;2329.60;;;;;;5031673;28;19916;-59
2022/10/27 06:26:30;;;;;;;;;;;384.10;2329.60;;;;;;5025829;28;19913;-60
2022/10/27 06:28:55;;;;;;;;;;;384.40;2329.60;;;;;;5027143;28;20386;-59
2022/10/27 06:31:21;;;;;;;;;;;384.70;2329.60;;;;;;5016511;28;20284;-61
2022/10/27 06:33:46;;;;;;;;;;;384.90;2329.60;;;;;;5011172;28;20271;-59
2022/10/27 06:36:13;;;;;;;;;;;384.80;2329.60;;;;;;5011671;28;19918;-59
2022/10/27 06:38:38;;;;;;;;;;;409.60;2355.20;;;;;;5011695;28;19910;-60
2022/10/27 06:41:04;;;;;;;;;;;384.90;2329.60;;;;;;5011603;28;19916;-60
2022/10/27 06:43:30;;;;;;;;;;;384.50;2329.60;;;;;;5026478;28;20271;-61
2022/10/27 06:45:55;;;;;;;;;;;384.60;2329.60;;;;;;5030948;28;19910;-60
2022/10/27 06:48:21;;;;;;;;;;;409.60;2355.20;;;;;;5016155;28;19929;-60
2022/10/27 06:50:46;;;;;;;;;;;409.80;2355.20;;;;;;5010681;28;19920;-60
2022/10/27 06:53:12;;;;;;;;;;;409.90;2355.20;;;;;;5026539;28;19913;-61
2022/10/27 06:55:37;;;;;;;;;;;410.00;2355.20;;;;;;5031000;28;19915;-61
2022/10/27 06:58:03;;;;;;;;;;;410.30;2355.20;;;;;;5031040;28;19910;-60
2022/10/27 07:00:28;;;;;;;;;;;410.40;2355.20;;;;;;5030508;28;19909;-61
2022/10/27 07:02:54;;;;;;;;;;;410.30;2355.20;;;;;;5030907;28;19909;-60
2022/10/27 07:05:19;;;;;;;;;;;410.10;2355.20;;;;;;5030628;28;20319;-61
2022/10/27 07:07:49;;;;;;;;;;;410.10;2355.20;;;;;;5030679;28;19917;-61
2022/10/27 07:10:15;;;;;;;;;;;409.80;2355.20;;;;;;5030679;28;19909;-61
2022/10/27 07:12:54;;;;;;;;;;;409.80;2355.20;;;;;;5030943;28;19909;-61
2022/10/27 07:15:19;;;;;;;;;;;409.80;2355.20;;;;;;5030886;28;19909;-61
2022/10/27 07:17:45;;;;;;;;;;;410.40;2355.20;;;;;;5030579;28;20063;-61
2022/10/27 07:20:11;;;;;;;;;;;461.50;2380.80;;;;;;5030761;28;19909;-61
2022/10/27 07:22:38;;;;;;;;;;;512.20;2380.80;;;;;;5030933;28;19913;-61
2022/10/27 07:25:04;;;;;;;;;;;512.90;2355.20;;;;;;5030539;28;19956;-61
2022/10/27 07:27:30;;;;;;;;;;;563.50;2227.20;;;;;;5030585;28;19947;-61
2022/10/27 07:29:55;;;;;;;;;;;588.80;2124.80;;;;;;5030462;28;19915;-61
2022/10/27 07:32:22;;;;;;;;;;;589.60;2022.40;;;;;;5030622;28;19991;-61
2022/10/27 07:34:47;;;;;;;;;;;615.10;1920.00;;;;;;5030367;28;19917;-61
2022/10/27 07:37:13;;;;;;;;;;;665.70;1792.00;;;;;;5030580;28;20463;-61
2022/10/27 07:39:38;;;;;;;;;;;691.60;1664.00;;;;;;5030661;28;19910;-62
2022/10/27 07:42:04;;;;;;;;;;;742.40;1638.40;;;;;;5030316;28;20003;-62
2022/10/27 07:44:29;;;;;;;;;;;717.30;1587.20;;;;;;5030617;28;20008;-61
2022/10/27 07:46:55;;;;;;;;;;;691.80;1612.80;;;;;;5030351;28;19959;-61
2022/10/27 07:49:20;;;;;;;;;;;691.60;1612.80;;;;;;5030579;28;19913;-61
2022/10/27 07:51:46;;;;;;;;;;;691.80;1587.20;;;;;;5030251;28;19913;-61
2022/10/27 07:54:11;;;;;;;;;;;691.90;1561.60;;;;;;5030251;28;19909;-62
2022/10/27 07:56:37;;;;;;;;;;;768.50;1510.40;;;;;;5030251;28;19913;-61
2022/10/27 07:59:03;;;;;;;;;;;768.90;1433.60;;;;;;5030595;28;20039;-61
2022/10/27 08:01:28;;;;;;;;;;;793.80;1433.60;;;;;;5030406;28;20375;-61
2022/10/27 08:03:54;;;;;;;;;;;768.40;1433.60;;;;;;5030025;28;19916;-61
2022/10/27 08:06:19;;;;;;;;;;;768.40;1433.60;;;;;;5030132;28;19931;-62
2022/10/27 08:08:45;;;;;;;;;;;717.50;1510.40;;;;;;5030097;28;19964;-61
2022/10/27 08:11:11;;;;;;;;;;;692.10;1536.00;;;;;;5030455;28;19909;-61
2022/10/27 08:13:36;;;;;;;;;;;640.60;1638.40;;;;;;5033656;28;19917;-60
2022/10/27 08:16:02;;;;;;;;;;;614.60;1740.80;;;;;;5034143;28;20004;-61
2022/10/27 08:18:27;;;;;;;;;;;589.00;1817.60;;;;;;5034027;28;20375;-61
2022/10/27 08:20:53;;;;;;;;;;;589.30;1817.60;;;;;;5033785;28;19909;-61
2022/10/27 08:23:20;;;;;;;;;;;614.90;1740.80;;;;;;5034023;28;19913;-61
2022/10/27 08:25:46;;;;;;;;;;;666.20;1638.40;;;;;;5033952;28;19909;-62
2022/10/27 08:28:13;;;;;;;;;;;717.10;1561.60;;;;;;5033777;28;19917;-62
2022/10/27 08:30:38;;;;;;;;;;;768.20;1484.80;;;;;;5033950;28;19955;-62
2022/10/27 08:33:04;;;;;;;;;;;793.70;1433.60;;;;;;5033797;28;19910;-62
2022/10/27 08:35:30;;;;;;;;;;;768.90;1408.00;;;;;;5033296;28;19920;-62
2022/10/27 08:38:00;;;;;;;;;;;793.60;1408.00;;;;;;5033661;28;20383;-61
2022/10/27 08:40:45;;;;;;;;;;;793.80;1408.00;;;;;;5025726;28;19913;-62
2022/10/27 08:43:23;;;;;;;;;;;793.70;1408.00;;;;;;5024367;28;19914;-62
2022/10/27 08:45:52;;;;;;;;;;;794.10;1382.40;;;;;;5017188;28;19921;-61
2022/10/27 08:48:18;;;;;;;;;;;;;;;;;;5019812;28;19921;-61
2022/10/27 08:50:44;;;;;;;;;;;820.10;1331.20;;;;;;5022677;28;19913;-61
2022/10/27 08:53:15;;;;;;;;;;;845.50;1305.60;;;;;;5025095;28;20378;-60
2022/10/27 08:55:48;;;;;;;;;;;819.80;1305.60;;;;;;5032663;28;20005;-61
2022/10/27 08:58:23;;;;;;;;;;;819.60;1305.60;;;;;;5033199;28;20003;-62
2022/10/27 09:00:51;;;;;;;;;;;819.90;1305.60;;;;;;5033270;28;19996;-62
2022/10/27 09:03:35;;;;;;;;;;;845.10;1305.60;;;;;;5033315;28;19916;-61
2022/10/27 09:06:07;;;;;;;;;;;794.50;1305.60;;;;;;5032970;28;19925;-61
2022/10/27 09:08:43;;;;;;;;;;;819.30;1331.20;;;;;;5033013;28;19988;-62
2022/10/27 09:11:27;;;;;;;;;;;794.50;1331.20;;;;;;5033097;28;20379;-62
2022/10/27 09:14:16;;;;;;;;;;;768.60;1356.80;;;;;;5032756;28;19909;-61
2022/10/27 09:16:47;;;;;;;;;;;717.50;1408.00;;;;;;5030649;28;20130;-61
2022/10/27 09:19:15;;;;;;;;;;;716.80;1459.20;;;;;;5030694;28;19909;-61
2022/10/27 09:21:42;;;;;;;;;;;692.10;1459.20;;;;;;5030659;28;19954;-61
2022/10/27 09:24:11;;;;;;;;;;;691.60;1484.80;;;;;;5029598;28;19909;-62
2022/10/27 09:26:39;;;;;;;;;;;666.40;1536.00;;;;;;5030599;28;19913;-61
2022/10/27 09:29:13;;;;;;;;;;;666.10;1536.00;;;;;;5030247;28;20376;-61
2022/10/27 09:31:42;;;;;;;;;;;665.70;1587.20;;;;;;5030523;28;19909;-61
2022/10/27 09:34:25;;;;;;;;;;;640.90;1561.60;;;;;;5030187;28;19920;-61
2022/10/27 09:36:51;;;;;;;;;;;640.60;1587.20;;;;;;5030427;28;19933;-61
2022/10/27 09:39:18;;;;;;;;;;;640.60;1587.20;;;;;;5030385;28;19924;-61
2022/10/27 09:41:43;;;;;;;;;;;640.40;1587.20;;;;;;5030276;28;19909;-61
2022/10/27 09:44:22;;;;;;;;;;;640.30;1664.00;;;;;;5030307;28;19909;-60
2022/10/27 09:46:49;;;;;;;;;;;640.40;1612.80;;;;;;5030393;28;20040;-61
2022/10/27 09:49:15;;;;;;;;;;;614.80;1664.00;;;;;;5029893;28;19917;-61
2022/10/27 09:51:43;;;;;;;;;;;614.90;1664.00;;;;;;5030175;28;19909;-61
2022/10/27 09:54:28;;;;;;;;;;;615.00;1664.00;;;;;;5031614;28;19915;-61
2022/10/27 09:56:55;;;;;;;;;;;615.30;1664.00;;;;;;5031900;28;19909;-62
2022/10/27 09:59:22;;;;;;;;;;;614.50;1715.20;;;;;;5032183;28;19913;-61
2022/10/27 10:01:54;;;;;;;;;;;614.50;1715.20;;;;;;5032019;28;19956;-60
2022/10/27 10:04:19;;;;;;;;;;;614.70;1689.60;;;;;;5031994;28;19909;-61
2022/10/27 10:06:51;;;;;;;;;;;614.80;1689.60;;;;;;5031596;28;20418;-61
2022/10/27 10:09:20;;;;;;;;;;;614.80;1689.60;;;;;;5031725;28;19917;-61
2022/10/27 10:11:46;;;;;;;;;;;614.70;1689.60;;;;;;5031627;28;19909;-61
2022/10/27 10:14:24;;;;;;;;;;;614.70;1689.60;;;;;;5031834;28;20351;-61
2022/10/27 10:16:50;;;;;;;;;;;614.70;1715.20;;;;;;5031818;28;20382;-61
2022/10/27 10:19:18;;;;;;;;;;;589.70;1766.40;;;;;;5031487;28;19909;-61
2022/10/27 10:21:46;;;;;;;;;;;589.40;1766.40;;;;;;5031489;28;19909;-61
2022/10/27 10:24:16;;;;;;;;;;;589.40;1792.00;;;;;;5031469;28;19909;-61
2022/10/27 10:26:45;;;;;;;;;;;589.50;1766.40;;;;;;5031554;28;19993;-61
2022/10/27 10:29:26;;;;;;;;;;;588.80;1817.60;;;;;;5031388;28;19921;-61
2022/10/27 10:32:11;;;;;;;;;;;589.00;1817.60;;;;;;5031610;28;20342;-61
2022/10/27 10:34:38;;;;;;;;;;;589.00;1817.60;;;;;;5030704;28;20021;-61
2022/10/27 10:37:23;;;;;;;;;;;589.30;1817.60;;;;;;5031164;28;20359;-61
2022/10/27 10:39:49;;;;;;;;;;;589.50;1817.60;;;;;;5031200;28;19931;-61
2022/10/27 10:42:16;;;;;;;;;;;589.30;1843.20;;;;;;5031068;28;19909;-61
2022/10/27 10:44:42;;;;;;;;;;;589.40;1843.20;;;;;;5031344;28;19955;-61
2022/10/27 10:47:19;;;;;;;;;;;589.40;1843.20;;;;;;5031113;28;20286;-62
2022/10/27 10:49:48;;;;;;;;;;;589.40;1843.20;;;;;;5030986;28;19920;-61
2022/10/27 10:52:24;;;;;;;;;;;589.10;1868.80;;;;;;5030898;28;19909;-61
2022/10/27 10:54:49;;;;;;;;;;;589.20;1868.80;;;;;;5031116;28;19909;-61
2022/10/27 10:57:27;;;;;;;;;;;589.10;1868.80;;;;;;5030752;28;20275;-61
2022/10/27 10:59:54;;;;;;;;;;;588.90;1894.40;;;;;;5030839;28;19909;-61
2022/10/27 11:02:20;;;;;;;;;;;564.10;1894.40;;;;;;5031024;28;19910;-61
2022/10/27 11:04:48;;;;;;;;;;;588.90;1894.40;;;;;;5030436;28;19924;-61
2022/10/27 11:07:16;;;;;;;;;;;588.90;1894.40;;;;;;5030775;28;19914;-62
2022/10/27 11:09:48;;;;;;;;;;;589.10;1894.40;;;;;;5030748;28;19913;-61
2022/10/27 11:12:23;;;;;;;;;;;589.20;1868.80;;;;;;5030616;28;19913;-61
2022/10/27 11:14:49;;;;;;;;;;;589.10;1868.80;;;;;;5030727;28;19909;-61
2022/10/27 11:17:15;;;;;;;;;;;589.20;1868.80;;;;;;5030446;28;19931;-61
2022/10/27 11:19:43;;;;;;;;;;;589.00;1894.40;;;;;;5030576;28;20414;-61
2022/10/27 11:22:16;;;;;;;;;;;564.10;1894.40;;;;;;5030713;28;19912;-61
2022/10/27 11:24:44;;;;;;;;;;;589.00;1894.40;;;;;;5030728;28;20322;-61
2022/10/27 11:27:14;;;;;;;;;;;589.00;1894.40;;;;;;5030460;28;19979;-61
2022/10/27 11:29:46;;;;;;;;;;;588.90;1920.00;;;;;;5030309;28;20279;-61
2022/10/27 11:32:15;;;;;;;;;;;588.80;1920.00;;;;;;5030193;28;19909;-61
2022/10/27 11:34:59;;;;;;;;;;;588.80;1920.00;;;;;;5030426;28;20462;-61
2022/10/27 11:37:31;;;;;;;;;;;588.80;1920.00;;;;;;5030146;28;19913;-61
2022/10/27 11:40:01;;;;;;;;;;;589.00;1920.00;;;;;;5030295;28;19917;-61
2022/10/27 11:42:27;;;;;;;;;;;564.10;1945.60;;;;;;5030402;28;20000;-61
2022/10/27 11:45:11;;;;;;;;;;;564.10;1945.60;;;;;;5030274;28;20004;-61
2022/10/27 11:47:39;;;;;;;;;;;588.80;1945.60;;;;;;5031867;28;20291;-61
2022/10/27 11:50:07;;;;;;;;;;;589.00;1945.60;;;;;;5034286;28;19968;-61
2022/10/27 11:52:35;;;;;;;;;;;589.00;1920.00;;;;;;5034308;28;20386;-61
2022/10/27 11:55:02;;;;;;;;;;;589.00;1920.00;;;;;;5034246;28;19909;-61
2022/10/27 11:57:35;;;;;;;;;;;589.10;1920.00;;;;;;5034196;28;20326;-61
2022/10/27 12:00:13;;;;;;;;;;;589.20;1894.40;;;;;;5034502;28;19959;-61
2022/10/27 12:02:38;;;;;;;;;;;589.10;1920.00;;;;;;5032973;28;19909;-61
2022/10/27 12:05:06;;;;;;;;;;;589.10;1920.00;;;;;;5033926;28;19921;-61
2022/10/27 12:07:53;;;;;;;;;;;589.10;1894.40;;;;;;5034012;28;20351;-62
2022/10/27 12:10:18;;;;;;;;;;;588.90;1920.00;;;;;;5034007;28;19968;-62
2022/10/27 12:12:50;;;;;;;;;;;588.80;1945.60;;;;;;5033816;28;19913;-61
2022/10/27 12:15:18;;;;;;;;;;;564.10;1920.00;;;;;;5033877;28;19916;-61
2022/10/27 12:18:03;;;;;;;;;;;589.00;1945.60;;;;;;5033838;28;19910;-61
2022/10/27 12:20:46;;;;;;;;;;;589.00;1920.00;;;;;;5033824;28;19921;-61
2022/10/27 12:23:18;;;;;;;;;;;589.10;1920.00;;;;;;5033854;28;19909;-61
2022/10/27 12:26:05;;;;;;;;;;;589.10;1920.00;;;;;;5033665;28;19915;-61
2022/10/27 12:28:31;;;;;;;;;;;589.20;1920.00;;;;;;5032943;28;20411;-61
2022/10/27 12:30:58;;;;;;;;;;;589.00;1920.00;;;;;;5033653;28;20012;-61
2022/10/27 12:33:39;;;;;;;;;;;589.20;1920.00;;;;;;5033655;28;20012;-61
2022/10/27 12:36:07;;;;;;;;;;;589.30;1894.40;;;;;;5033606;28;19913;-61
2022/10/27 12:38:51;;;;;;;;;;;589.30;1868.80;;;;;;5033425;28;19913;-61
2022/10/27 12:41:29;;;;;;;;;;;589.40;1868.80;;;;;;5033410;28;19913;-61
2022/10/27 12:44:06;;;;;;;;;;;589.30;1868.80;;;;;;5033324;28;19948;-61
2022/10/27 12:46:34;;;;;;;;;;;589.40;1868.80;;;;;;5033628;28;20326;-61
2022/10/27 12:49:18;;;;;;;;;;;589.30;1894.40;;;;;;5033187;28;19927;-61
2022/10/27 12:51:55;;;;;;;;;;;589.10;1894.40;;;;;;5033034;28;19909;-61
2022/10/27 12:54:21;;;;;;;;;;;589.20;1920.00;;;;;;5033250;28;19916;-61
2022/10/27 12:56:52;;;;;;;;;;;589.20;1894.40;;;;;;5033023;28;19913;-61
2022/10/27 12:59:22;;;;;;;;;;;589.10;1920.00;;;;;;5033153;28;20008;-61
2022/10/27 13:02:07;;;;;;;;;;;589.10;1894.40;;;;;;5033196;28;19913;-61
2022/10/27 13:04:50;;;;;;;;;;;589.30;1920.00;;;;;;5032794;28;19945;-61
2022/10/27 13:07:28;;;;;;;;;;;589.40;1894.40;;;;;;5032594;28;19920;-61
2022/10/27 13:09:56;;;;;;;;;;;589.30;1894.40;;;;;;5032741;28;19913;-61
2022/10/27 13:12:32;;;;;;;;;;;589.30;1868.80;;;;;;5032948;28;20308;-61
2022/10/27 13:15:15;;;;;;;;;;;589.30;1868.80;;;;;;5032799;28;20423;-61
2022/10/27 13:17:41;;;;;;;;;;;589.40;1868.80;;;;;;5032901;28;19916;-61
2022/10/27 13:20:29;;;;;;;;;;;589.30;1868.80;;;;;;5032900;28;20275;-62
2022/10/27 13:23:15;;;;;;;;;;;589.30;1868.80;;;;;;5030193;28;19909;-61
2022/10/27 13:25:47;;;;;;;;;;;589.20;1894.40;;;;;;5030171;28;19978;-61
2022/10/27 13:28:17;;;;;;;;;;;589.10;1868.80;;;;;;5030151;28;19924;-60
2022/10/27 13:30:50;;;;;;;;;;;589.00;1894.40;;;;;;5030280;28;20003;-61
2022/10/27 13:33:35;;;;;;;;;;;589.10;1868.80;;;;;;5030048;28;19909;-61
2022/10/27 13:36:15;;;;;;;;;;;589.00;1868.80;;;;;;5030137;28;19939;-61
2022/10/27 13:38:41;;;;;;;;;;;589.00;1868.80;;;;;;5030296;28;19951;-61
2022/10/27 13:41:06;;;;;;;;;;;589.00;1894.40;;;;;;5030172;28;19917;-61
2022/10/27 13:43:32;;;;;;;;;;;589.30;1868.80;;;;;;5030058;28;19917;-61
2022/10/27 13:45:57;;;;;;;;;;;589.20;1868.80;;;;;;5030225;28;20271;-61
2022/10/27 13:48:23;;;;;;;;;;;589.30;1843.20;;;;;;5029711;28;20383;-61
2022/10/27 13:50:50;;;;;;;;;;;589.20;1868.80;;;;;;5029892;28;19909;-61